Terminal Aerodrome Forecast
Issued by NWS

Home | Current Version | Previous Version | Graphics & Text | Print | Product List | Glossary On
Versions: 1 2 3 4 5 6 7 8 9 10 11 12 13
000
FTUS45 KGGW 291124
TAFOLF
TAF
KOLF 291124Z 2912/3012 VRB05KT P6SM BKN100
     FM291700 25008KT P6SM FEW230
     FM291900 25012KT P6SM FEW240
     FM300000 26008KT P6SM BKN220
     FM300300 11004KT P6SM BKN130=

USA.gov is the U.S. government's official web portal to all federal, state and local government web resources and services.